createdAt,value
2017-12-31T00:02:20.957Z,19.55
2017-12-31T00:04:46.857Z,19.52
2017-12-31T00:07:13.633Z,19.68
2017-12-31T00:09:40.419Z,19.54
2017-12-31T00:12:06.222Z,19.63
2017-12-31T00:14:32.070Z,19.67
2017-12-31T00:16:57.868Z,19.61
2017-12-31T00:19:23.672Z,19.66
2017-12-31T00:21:49.470Z,19.46
2017-12-31T00:24:15.273Z,19.66
2017-12-31T00:26:41.164Z,19.71
2017-12-31T00:29:06.969Z,19.57
2017-12-31T00:31:32.772Z,19.63
2017-12-31T00:33:59.635Z,19.76
2017-12-31T00:36:25.437Z,19.63
2017-12-31T00:38:51.277Z,19.58
2017-12-31T00:41:17.597Z,19.53
2017-12-31T00:43:43.446Z,19.41
2017-12-31T00:46:09.386Z,19.30
2017-12-31T00:48:35.248Z,19.50
2017-12-31T00:51:01.082Z,19.63
2017-12-31T00:53:26.930Z,19.57
2017-12-31T00:55:52.768Z,19.60
2017-12-31T00:58:18.609Z,19.63
2017-12-31T01:00:44.421Z,19.49
2017-12-31T01:03:10.222Z,19.38
2017-12-31T01:05:36.025Z,19.61
2017-12-31T01:08:01.839Z,19.64
2017-12-31T01:10:27.651Z,19.72
2017-12-31T01:12:53.448Z,19.58
2017-12-31T01:15:19.285Z,19.41
2017-12-31T01:17:45.092Z,19.44
2017-12-31T01:20:10.930Z,19.37
2017-12-31T01:22:36.862Z,19.44
2017-12-31T01:25:02.822Z,19.52
2017-12-31T01:27:29.537Z,19.54
2017-12-31T01:29:56.318Z,19.43
2017-12-31T01:32:22.985Z,19.49
2017-12-31T01:34:48.933Z,19.37
2017-12-31T01:37:14.729Z,19.34
2017-12-31T01:39:40.536Z,19.33
2017-12-31T01:42:06.557Z,19.45
2017-12-31T01:44:32.360Z,19.67
2017-12-31T01:46:58.201Z,19.59
2017-12-31T01:49:24.165Z,19.46
2017-12-31T01:51:50.009Z,19.47
2017-12-31T01:54:15.852Z,19.38
2017-12-31T01:56:41.720Z,19.30
2017-12-31T01:59:07.532Z,19.62
2017-12-31T02:01:34.171Z,19.47
2017-12-31T02:04:00.925Z,19.68
2017-12-31T02:06:26.726Z,19.67
2017-12-31T02:08:53.316Z,19.76
2017-12-31T02:11:19.939Z,19.70
2017-12-31T02:13:45.785Z,19.71
2017-12-31T02:16:11.591Z,19.78
2017-12-31T02:18:37.393Z,19.74
2017-12-31T02:21:03.193Z,19.75
2017-12-31T02:23:28.989Z,19.82
2017-12-31T02:25:54.788Z,19.74
2017-12-31T02:28:20.635Z,19.71
2017-12-31T02:30:46.467Z,19.57
2017-12-31T02:33:12.406Z,19.43
2017-12-31T02:35:38.213Z,19.47
2017-12-31T02:38:04.014Z,19.67
2017-12-31T02:40:29.817Z,19.59
2017-12-31T02:42:55.622Z,19.60
2017-12-31T02:45:21.646Z,19.62
2017-12-31T02:47:47.776Z,19.56
2017-12-31T02:50:13.590Z,19.54
2017-12-31T02:52:39.441Z,19.42
2017-12-31T02:55:05.248Z,19.59
2017-12-31T02:57:31.050Z,19.30
2017-12-31T02:59:56.872Z,19.33
2017-12-31T03:02:22.675Z,19.48
2017-12-31T03:04:48.483Z,19.43
2017-12-31T03:07:14.298Z,19.62
2017-12-31T03:09:40.142Z,19.32
2017-12-31T03:12:05.937Z,19.37
2017-12-31T03:14:31.736Z,19.50
2017-12-31T03:16:57.577Z,19.27
2017-12-31T03:19:23.382Z,19.41
2017-12-31T03:21:49.185Z,19.35
2017-12-31T03:24:15.016Z,19.30
2017-12-31T03:26:40.890Z,19.37
2017-12-31T03:29:06.702Z,19.36
2017-12-31T03:31:32.506Z,19.31
2017-12-31T03:33:58.318Z,19.20
2017-12-31T03:36:24.122Z,19.28
2017-12-31T03:38:49.936Z,19.41
2017-12-31T03:41:15.742Z,19.35
2017-12-31T03:43:41.541Z,19.27
2017-12-31T03:46:07.345Z,19.24
2017-12-31T03:48:33.186Z,19.21
2017-12-31T03:50:59.021Z,19.26
2017-12-31T03:53:24.965Z,19.38
2017-12-31T03:55:50.812Z,19.25
2017-12-31T03:58:16.621Z,19.44
2017-12-31T04:00:42.457Z,19.20
2017-12-31T04:03:08.345Z,19.29
2017-12-31T04:05:34.190Z,19.17
2017-12-31T04:08:00.039Z,19.45
2017-12-31T04:10:25.856Z,19.26
2017-12-31T04:12:51.722Z,19.47
2017-12-31T04:15:17.665Z,19.69
2017-12-31T04:17:43.469Z,19.69
2017-12-31T04:20:09.279Z,19.55
2017-12-31T04:22:35.088Z,19.81
2017-12-31T04:25:00.895Z,19.33
2017-12-31T04:27:26.742Z,19.63
2017-12-31T04:29:52.592Z,19.41
2017-12-31T04:32:18.397Z,19.30
2017-12-31T04:34:44.246Z,19.39
2017-12-31T04:37:10.070Z,19.46
2017-12-31T04:39:35.914Z,19.42
2017-12-31T04:42:01.761Z,19.44
2017-12-31T04:44:27.566Z,19.24
2017-12-31T04:46:53.628Z,19.21
2017-12-31T04:49:19.601Z,19.28
2017-12-31T04:51:45.410Z,19.22
2017-12-31T04:54:11.222Z,19.31
2017-12-31T04:56:37.071Z,19.38
2017-12-31T04:59:02.941Z,19.33
2017-12-31T05:01:28.744Z,19.34
2017-12-31T05:03:54.590Z,19.28
2017-12-31T05:06:20.401Z,19.22
2017-12-31T05:08:46.334Z,19.21
2017-12-31T05:11:12.134Z,19.25
2017-12-31T05:13:37.981Z,19.23
2017-12-31T05:16:03.799Z,19.26
2017-12-31T05:18:29.601Z,19.25
2017-12-31T05:20:55.405Z,19.46
2017-12-31T05:23:21.210Z,19.17
2017-12-31T05:25:47.017Z,19.28
2017-12-31T05:28:12.909Z,19.20
2017-12-31T05:30:38.759Z,19.20
2017-12-31T05:33:05.110Z,19.24
2017-12-31T05:35:30.921Z,19.15
2017-12-31T05:37:56.726Z,19.18
2017-12-31T05:40:22.529Z,19.23
2017-12-31T05:42:48.333Z,19.12
2017-12-31T05:45:14.149Z,19.21
2017-12-31T05:47:39.956Z,19.25
2017-12-31T05:50:05.813Z,19.16
2017-12-31T05:52:31.631Z,19.15
2017-12-31T05:54:57.435Z,19.23
2017-12-31T05:57:23.346Z,19.18
2017-12-31T05:59:49.161Z,19.13
2017-12-31T06:02:14.961Z,19.11
2017-12-31T06:04:40.765Z,19.15
2017-12-31T06:07:06.572Z,19.14
2017-12-31T06:09:32.627Z,19.17
2017-12-31T06:11:58.730Z,19.18
2017-12-31T06:14:24.535Z,19.12
2017-12-31T06:16:50.377Z,19.19
2017-12-31T06:19:16.185Z,19.18
2017-12-31T06:21:41.992Z,19.24
2017-12-31T06:24:07.797Z,19.26
2017-12-31T06:26:33.602Z,19.32
2017-12-31T06:28:59.634Z,19.47
2017-12-31T06:31:25.470Z,19.29
2017-12-31T06:33:51.278Z,19.33
2017-12-31T06:36:17.145Z,19.23
2017-12-31T06:38:42.949Z,19.28
2017-12-31T06:41:08.757Z,19.30
2017-12-31T06:43:34.613Z,19.42
2017-12-31T06:46:00.418Z,19.31
2017-12-31T06:48:26.829Z,19.18
2017-12-31T06:50:52.649Z,19.36
2017-12-31T06:53:18.453Z,19.26
2017-12-31T06:55:44.257Z,19.27
2017-12-31T06:58:10.066Z,19.23
2017-12-31T07:00:35.870Z,19.26
2017-12-31T07:03:01.686Z,19.24
2017-12-31T07:05:27.705Z,19.26
2017-12-31T07:07:53.519Z,19.26
2017-12-31T07:10:19.374Z,19.23
2017-12-31T07:12:45.223Z,19.24
2017-12-31T07:15:11.026Z,19.23
2017-12-31T07:17:36.901Z,19.37
2017-12-31T07:20:02.770Z,19.33
2017-12-31T07:22:28.577Z,19.26
2017-12-31T07:24:54.562Z,19.25
2017-12-31T07:27:20.374Z,19.27
2017-12-31T07:29:46.193Z,19.26
2017-12-31T07:32:11.999Z,19.32
2017-12-31T07:34:37.848Z,19.36
2017-12-31T07:37:03.766Z,19.34
2017-12-31T07:39:29.572Z,19.37
2017-12-31T07:41:55.413Z,19.32
2017-12-31T07:44:21.217Z,19.31
2017-12-31T07:46:47.073Z,19.35
2017-12-31T07:49:12.874Z,19.32
2017-12-31T07:51:38.678Z,19.37
2017-12-31T07:54:04.542Z,19.30
2017-12-31T07:56:30.349Z,19.29
2017-12-31T07:58:56.163Z,19.30
2017-12-31T08:01:21.969Z,19.30
2017-12-31T08:03:47.819Z,19.33
2017-12-31T08:06:13.626Z,19.37
2017-12-31T08:08:39.472Z,19.34
2017-12-31T08:11:05.334Z,19.31
2017-12-31T08:13:31.142Z,19.33
2017-12-31T08:15:57.024Z,19.32
2017-12-31T08:18:22.842Z,19.36
2017-12-31T08:20:48.655Z,19.37
2017-12-31T08:23:14.471Z,19.36
2017-12-31T08:25:40.460Z,19.42
2017-12-31T08:28:06.330Z,19.38
2017-12-31T08:30:32.189Z,19.48
2017-12-31T08:32:58.034Z,19.41
2017-12-31T08:35:23.838Z,19.36
2017-12-31T08:37:49.650Z,19.38
2017-12-31T08:40:15.462Z,19.33
2017-12-31T08:42:41.278Z,19.43
2017-12-31T08:45:07.173Z,19.42
2017-12-31T08:47:33.012Z,19.40
2017-12-31T08:49:58.863Z,19.46
2017-12-31T08:52:24.809Z,19.39
2017-12-31T08:54:50.885Z,19.47
2017-12-31T08:57:16.732Z,19.38
2017-12-31T08:59:42.544Z,19.42
2017-12-31T09:02:08.394Z,19.34
2017-12-31T09:04:34.210Z,19.35
2017-12-31T09:07:00.028Z,19.37
2017-12-31T09:09:25.842Z,19.35
2017-12-31T09:11:51.697Z,19.37
2017-12-31T09:14:17.598Z,19.33
2017-12-31T09:16:43.394Z,19.42
2017-12-31T09:19:09.201Z,19.49
2017-12-31T09:21:35.019Z,19.50
2017-12-31T09:24:00.870Z,19.41
2017-12-31T09:26:26.681Z,19.58
2017-12-31T09:28:52.526Z,19.51
2017-12-31T09:31:18.479Z,19.54
2017-12-31T09:33:44.286Z,19.51
2017-12-31T09:36:10.085Z,19.47
2017-12-31T09:38:35.889Z,19.42
2017-12-31T09:41:01.696Z,19.47
2017-12-31T09:43:27.510Z,19.39
2017-12-31T09:45:53.317Z,19.45
2017-12-31T09:48:19.127Z,19.38
2017-12-31T09:50:44.945Z,19.36
2017-12-31T09:53:10.759Z,19.45
2017-12-31T09:55:36.576Z,19.37
2017-12-31T09:58:02.391Z,19.43
2017-12-31T10:00:28.195Z,19.32
2017-12-31T10:02:54.001Z,19.36
2017-12-31T10:05:19.856Z,19.35
2017-12-31T10:07:45.667Z,19.39
2017-12-31T10:10:11.472Z,19.38
2017-12-31T10:12:37.274Z,19.39
2017-12-31T10:15:03.077Z,19.36
2017-12-31T10:17:28.873Z,19.36
2017-12-31T10:19:54.678Z,19.31
2017-12-31T10:22:20.494Z,19.33
2017-12-31T10:24:46.302Z,19.36
2017-12-31T10:27:12.110Z,19.34
2017-12-31T10:29:37.974Z,19.31
2017-12-31T10:32:03.783Z,19.39
2017-12-31T10:34:29.598Z,19.36
2017-12-31T10:36:55.685Z,19.28
2017-12-31T10:39:21.529Z,19.32
2017-12-31T10:41:47.331Z,19.34
2017-12-31T10:44:13.825Z,19.31
2017-12-31T10:46:39.630Z,19.31
2017-12-31T10:49:06.470Z,19.33
2017-12-31T10:51:32.310Z,19.38
2017-12-31T10:53:58.124Z,19.47
2017-12-31T10:56:24.167Z,19.45
2017-12-31T10:58:49.974Z,19.59
2017-12-31T11:01:15.833Z,19.57
2017-12-31T11:03:41.637Z,19.47
2017-12-31T11:06:07.454Z,19.50
2017-12-31T11:08:33.306Z,19.42
2017-12-31T11:10:59.123Z,19.48
2017-12-31T11:13:25.143Z,19.49
2017-12-31T11:15:51.022Z,19.45
2017-12-31T11:18:16.829Z,19.59
2017-12-31T11:20:42.643Z,19.55
2017-12-31T11:23:08.449Z,19.44
2017-12-31T11:25:34.265Z,19.49
2017-12-31T11:28:00.075Z,19.45
2017-12-31T11:30:25.990Z,19.43
2017-12-31T11:32:51.862Z,19.45
2017-12-31T11:35:17.780Z,19.49
2017-12-31T11:37:43.853Z,19.49
2017-12-31T11:40:09.665Z,19.45
2017-12-31T11:42:35.507Z,19.43
2017-12-31T11:45:01.313Z,19.50
2017-12-31T11:47:27.166Z,19.48
2017-12-31T11:49:52.981Z,19.52
2017-12-31T11:52:18.789Z,19.52
2017-12-31T11:54:44.650Z,19.51
2017-12-31T11:57:10.463Z,19.50
2017-12-31T11:59:36.274Z,19.47
2017-12-31T12:02:02.115Z,19.51
2017-12-31T12:04:27.926Z,19.56
2017-12-31T12:06:53.776Z,19.64
2017-12-31T12:09:19.578Z,19.54
2017-12-31T12:11:45.426Z,19.53
2017-12-31T12:14:11.233Z,19.50
2017-12-31T12:16:37.276Z,19.56
2017-12-31T12:19:03.149Z,19.57
2017-12-31T12:21:28.966Z,19.53
2017-12-31T12:23:54.936Z,19.62
2017-12-31T12:26:20.743Z,19.63
2017-12-31T12:28:46.547Z,19.53
2017-12-31T12:31:12.358Z,19.68
2017-12-31T12:33:38.237Z,19.72
2017-12-31T12:36:04.370Z,19.86
2017-12-31T12:38:30.358Z,19.72
2017-12-31T12:40:56.974Z,19.61
2017-12-31T12:43:22.811Z,19.66
2017-12-31T12:45:48.693Z,19.76
2017-12-31T12:48:14.566Z,19.67
2017-12-31T12:50:40.385Z,19.76
2017-12-31T12:53:07.215Z,19.82
2017-12-31T12:55:33.125Z,19.83
2017-12-31T12:57:58.934Z,19.93
2017-12-31T13:00:24.910Z,19.86
2017-12-31T13:02:50.827Z,19.75
2017-12-31T13:05:16.662Z,19.73
2017-12-31T13:07:42.590Z,19.77
2017-12-31T13:10:08.464Z,19.78
2017-12-31T13:12:34.409Z,19.73
2017-12-31T13:15:00.278Z,19.77
2017-12-31T13:17:26.164Z,19.80
2017-12-31T13:19:52.035Z,19.69
2017-12-31T13:22:18.597Z,19.71
2017-12-31T13:24:44.523Z,19.78
2017-12-31T13:27:10.462Z,19.78
2017-12-31T13:29:36.305Z,19.79
2017-12-31T13:32:02.214Z,19.75
2017-12-31T13:34:28.294Z,19.71
2017-12-31T13:36:54.168Z,19.65
2017-12-31T13:39:20.329Z,19.71
2017-12-31T13:41:46.248Z,19.74
2017-12-31T13:44:12.063Z,19.75
2017-12-31T13:46:37.906Z,19.63
2017-12-31T13:49:03.763Z,19.69
2017-12-31T13:51:29.570Z,19.63
2017-12-31T13:53:55.398Z,19.54
2017-12-31T13:56:21.250Z,19.57
2017-12-31T13:58:47.058Z,19.61
2017-12-31T14:01:12.871Z,19.58
2017-12-31T14:03:38.678Z,19.66
2017-12-31T14:06:04.522Z,19.64
2017-12-31T14:08:30.354Z,19.69
2017-12-31T14:10:56.153Z,19.51
2017-12-31T14:13:21.964Z,19.60
2017-12-31T14:15:47.773Z,19.67
2017-12-31T14:18:13.593Z,19.65
2017-12-31T14:20:39.542Z,19.59
2017-12-31T14:23:07.258Z,19.54
2017-12-31T14:25:33.067Z,19.67
2017-12-31T14:27:58.874Z,19.77
2017-12-31T14:30:24.755Z,19.62
2017-12-31T14:32:50.655Z,19.54
2017-12-31T14:35:16.467Z,19.60
2017-12-31T14:37:42.276Z,19.62
2017-12-31T14:40:08.127Z,19.63
2017-12-31T14:42:33.935Z,19.62
2017-12-31T14:44:59.745Z,19.51
2017-12-31T14:47:25.556Z,19.59
2017-12-31T14:49:51.365Z,19.57
2017-12-31T14:52:17.172Z,19.54
2017-12-31T14:54:42.994Z,19.48
2017-12-31T14:57:09.062Z,19.64
2017-12-31T14:59:34.866Z,19.56
2017-12-31T15:02:00.686Z,19.56
2017-12-31T15:04:26.499Z,19.62
2017-12-31T15:06:52.312Z,19.66
2017-12-31T15:09:18.162Z,19.64
2017-12-31T15:11:43.977Z,19.67
2017-12-31T15:14:10.650Z,19.58
2017-12-31T15:16:36.493Z,19.57
2017-12-31T15:19:02.304Z,19.54
2017-12-31T15:21:28.380Z,19.51
2017-12-31T15:23:54.262Z,19.56
2017-12-31T15:26:20.113Z,19.60
2017-12-31T15:28:45.922Z,19.54
2017-12-31T15:31:11.771Z,19.65
2017-12-31T15:33:37.586Z,19.56
2017-12-31T15:36:03.407Z,19.62
2017-12-31T15:38:29.214Z,19.59
2017-12-31T15:40:55.029Z,19.71
2017-12-31T15:43:20.942Z,19.66
2017-12-31T15:45:47.003Z,19.82
2017-12-31T15:48:13.544Z,19.80
2017-12-31T15:50:39.436Z,19.72
2017-12-31T15:53:06.474Z,19.63
2017-12-31T15:55:32.301Z,19.65
2017-12-31T15:57:58.483Z,19.74
2017-12-31T16:00:24.313Z,19.76
2017-12-31T16:02:50.189Z,19.69
2017-12-31T16:05:16.093Z,19.84
2017-12-31T16:07:42.659Z,19.83
2017-12-31T16:10:08.638Z,19.83
2017-12-31T16:12:34.476Z,19.83
2017-12-31T16:15:00.286Z,19.86
2017-12-31T16:17:26.495Z,19.73
2017-12-31T16:19:52.323Z,19.84
2017-12-31T16:22:18.138Z,19.76
2017-12-31T16:24:44.171Z,19.86
2017-12-31T16:27:09.981Z,19.84
2017-12-31T16:29:35.785Z,19.83
2017-12-31T16:32:01.629Z,19.89
2017-12-31T16:34:27.470Z,19.89
2017-12-31T16:36:53.685Z,19.86
2017-12-31T16:39:20.163Z,19.86
2017-12-31T16:41:46.115Z,19.81
2017-12-31T16:44:11.941Z,19.76
2017-12-31T16:46:39.554Z,19.71
2017-12-31T16:49:05.390Z,19.79
2017-12-31T16:51:31.194Z,19.83
2017-12-31T16:53:57.151Z,19.78
2017-12-31T16:56:23.902Z,19.81
2017-12-31T16:58:49.946Z,19.84
2017-12-31T17:01:19.081Z,19.85
2017-12-31T17:03:48.973Z,19.77
2017-12-31T17:06:14.978Z,19.85
2017-12-31T17:08:40.930Z,19.86
2017-12-31T17:11:07.538Z,20.00
2017-12-31T17:13:34.478Z,19.91
2017-12-31T17:16:01.691Z,19.89
2017-12-31T17:18:27.664Z,19.98
2017-12-31T17:20:53.586Z,19.98
2017-12-31T17:23:19.478Z,19.62
2017-12-31T17:25:45.358Z,20.05
2017-12-31T17:28:11.402Z,19.94
2017-12-31T17:30:37.370Z,19.95
2017-12-31T17:33:10.528Z,19.88
2017-12-31T17:35:36.638Z,19.84
2017-12-31T17:38:02.622Z,19.85
2017-12-31T17:40:28.634Z,19.83
2017-12-31T17:42:54.622Z,19.80
2017-12-31T17:45:20.795Z,19.79
2017-12-31T17:47:46.707Z,19.79
2017-12-31T17:50:12.589Z,19.73
2017-12-31T17:52:38.402Z,19.75
2017-12-31T17:55:04.238Z,19.74
2017-12-31T17:57:30.071Z,19.85
2017-12-31T17:59:55.978Z,19.78
2017-12-31T18:02:21.786Z,19.79
2017-12-31T18:04:47.634Z,19.77
2017-12-31T18:07:13.470Z,19.82
2017-12-31T18:09:39.357Z,19.81
2017-12-31T18:12:08.231Z,19.79
2017-12-31T18:14:34.298Z,19.75
2017-12-31T18:17:00.226Z,19.83
2017-12-31T18:19:26.038Z,19.74
2017-12-31T18:21:52.286Z,19.86
2017-12-31T18:24:18.552Z,19.82
2017-12-31T18:26:44.367Z,19.76
2017-12-31T18:29:10.180Z,19.78
2017-12-31T18:31:35.990Z,19.77
2017-12-31T18:34:01.971Z,19.81
2017-12-31T18:36:27.786Z,19.76
2017-12-31T18:38:53.599Z,19.81
2017-12-31T18:41:19.470Z,19.82
2017-12-31T18:43:45.286Z,19.88
2017-12-31T18:46:11.097Z,20.08
2017-12-31T18:48:36.977Z,20.04
2017-12-31T18:51:02.779Z,20.06
2017-12-31T18:53:28.589Z,19.96
2017-12-31T18:55:54.531Z,19.89
2017-12-31T18:58:20.340Z,19.95
2017-12-31T19:00:46.205Z,19.95
2017-12-31T19:03:12.013Z,19.94
2017-12-31T19:05:37.919Z,19.94
2017-12-31T19:08:03.737Z,19.90
2017-12-31T19:10:29.541Z,19.89
2017-12-31T19:12:55.349Z,19.87
2017-12-31T19:15:21.340Z,19.88
2017-12-31T19:17:47.385Z,19.86
2017-12-31T19:20:13.190Z,19.89
2017-12-31T19:22:39.166Z,19.82
2017-12-31T19:25:05.187Z,19.82
2017-12-31T19:27:31.043Z,19.89
2017-12-31T19:29:56.859Z,19.83
2017-12-31T19:32:22.678Z,19.81
2017-12-31T19:34:48.482Z,19.85
2017-12-31T19:37:14.341Z,19.84
2017-12-31T19:39:41.232Z,19.94
2017-12-31T19:42:07.054Z,20.00
2017-12-31T19:44:32.987Z,19.95
2017-12-31T19:46:58.812Z,19.81
2017-12-31T19:49:24.662Z,19.81
2017-12-31T19:51:50.606Z,19.83
2017-12-31T19:54:23.466Z,19.93
2017-12-31T19:56:56.341Z,20.06
2017-12-31T19:59:22.510Z,20.05
2017-12-31T20:01:48.326Z,20.08
2017-12-31T20:04:14.294Z,20.01
2017-12-31T20:06:41.089Z,19.91
2017-12-31T20:09:06.909Z,19.96
2017-12-31T20:11:32.722Z,19.95
2017-12-31T20:13:58.537Z,19.96
2017-12-31T20:16:24.662Z,19.93
2017-12-31T20:18:50.491Z,19.88
2017-12-31T20:21:16.298Z,19.87
2017-12-31T20:23:43.577Z,19.92
2017-12-31T20:26:09.801Z,19.90
2017-12-31T20:28:35.658Z,19.90
2017-12-31T20:31:01.533Z,19.90
2017-12-31T20:33:27.394Z,19.87
2017-12-31T20:35:53.210Z,19.88
2017-12-31T20:38:19.068Z,19.91
2017-12-31T20:40:44.926Z,19.95
2017-12-31T20:43:10.742Z,19.89
2017-12-31T20:45:36.561Z,19.87
2017-12-31T20:48:02.406Z,19.86
2017-12-31T20:50:28.299Z,19.92
2017-12-31T20:52:54.110Z,19.92
2017-12-31T20:55:19.921Z,19.89
2017-12-31T20:57:46.279Z,19.97
2017-12-31T21:00:23.238Z,19.87
2017-12-31T21:02:49.732Z,19.88
2017-12-31T21:05:15.635Z,19.84
2017-12-31T21:07:41.469Z,19.86
2017-12-31T21:10:07.450Z,19.84
2017-12-31T21:12:33.306Z,19.79
2017-12-31T21:17:44.666Z,19.79
2017-12-31T21:20:11.063Z,19.83
2017-12-31T21:22:36.875Z,19.83
2017-12-31T21:25:02.838Z,19.88
2017-12-31T21:27:28.645Z,19.97
2017-12-31T21:29:54.482Z,19.98
2017-12-31T21:32:20.342Z,20.03
2017-12-31T21:34:46.290Z,20.11
2017-12-31T21:37:12.098Z,20.12
2017-12-31T21:39:37.909Z,20.11
2017-12-31T21:42:03.719Z,19.98
2017-12-31T21:44:29.672Z,20.04
2017-12-31T21:46:55.522Z,20.02
2017-12-31T21:49:21.351Z,19.99
2017-12-31T21:51:47.169Z,20.05
2017-12-31T21:54:13.340Z,20.06
2017-12-31T21:56:39.233Z,19.98
2017-12-31T21:59:05.053Z,19.98
2017-12-31T22:01:30.885Z,19.98
2017-12-31T22:03:57.886Z,19.96
2017-12-31T22:06:23.729Z,19.90
2017-12-31T22:08:49.539Z,19.95
2017-12-31T22:11:16.190Z,19.99
2017-12-31T22:13:42.591Z,19.97
2017-12-31T22:16:08.498Z,19.99
2017-12-31T22:18:34.316Z,20.01
2017-12-31T22:21:00.272Z,19.99
2017-12-31T22:23:26.199Z,19.96
2017-12-31T22:25:52.145Z,19.95
2017-12-31T22:28:18.046Z,19.95
2017-12-31T22:30:44.007Z,19.94
2017-12-31T22:33:09.850Z,19.95
2017-12-31T22:35:35.845Z,19.99
2017-12-31T22:38:01.660Z,20.08
2017-12-31T22:40:28.428Z,20.24
2017-12-31T22:42:54.261Z,20.24
2017-12-31T22:45:20.077Z,20.35
2017-12-31T22:47:45.913Z,20.30
2017-12-31T22:50:11.732Z,20.28
2017-12-31T22:52:37.628Z,20.25
2017-12-31T22:55:03.455Z,20.24
2017-12-31T22:57:29.462Z,20.14
2017-12-31T22:59:55.302Z,20.24
2017-12-31T23:02:22.369Z,20.19
2017-12-31T23:04:48.199Z,20.11
2017-12-31T23:07:14.883Z,20.18
2017-12-31T23:09:40.842Z,20.12
2017-12-31T23:12:06.697Z,20.05
2017-12-31T23:14:33.009Z,20.06
2017-12-31T23:16:58.842Z,20.02
2017-12-31T23:19:24.726Z,20.05
2017-12-31T23:21:51.038Z,20.02
2017-12-31T23:24:28.026Z,20.04
2017-12-31T23:26:55.728Z,20.01
2017-12-31T23:29:21.750Z,19.98
2017-12-31T23:31:47.623Z,19.96
2017-12-31T23:34:13.705Z,20.01
2017-12-31T23:36:39.692Z,20.04
2017-12-31T23:39:05.584Z,19.98
2017-12-31T23:41:31.394Z,20.02
2017-12-31T23:43:57.264Z,20.04
2017-12-31T23:46:23.232Z,19.94
2017-12-31T23:48:49.058Z,19.92
2017-12-31T23:51:15.022Z,20.01
2017-12-31T23:53:41.238Z,19.95
2017-12-31T23:56:07.089Z,19.92
2017-12-31T23:58:32.906Z,19.93
